»·PEaware :: QXE205 KBZN-KJAC

QXE205 :: KBZN-KJAC

FLIGHT INFORMATION

Flight Status: Arrived
Operator:
Horizon Air
More flights by this operator :: More flights under this callsign
Pilot: Chris S. (2433)
Aircraft: DEHAVILLAND DASH 8 400
(DH8D)
More flights by this aircraft type
Origin: KBZN Gallatin
United States
Destination: KJAC Jackson Hole
United States
More flights between these airports :: More routes between these airports
Route: BZN6 BRIGR
File this flight plan on PilotEdge
Remarks:
Altitude:
(Current/Filed)
17,000ft
Speed:
(Current/Filed)
350kts
Departed: 02-Dec-19 05:32 PM
Arrived: 02-Dec-19 06:09 PM
Distance/Time
Traveled:
132nm/0:37
Distance/Time
To Go:
Arrived

Flight Plot

Page will automatically refresh every two minutes.

Flight plan parsing failed; only flown route is shown


Map Options




Map Legend


Flown Route
Filed Route
Departure Airport
Arrival Airport
Navaid (VOR, NDB)
Fix

Horizontal Profiles

Position Reports

Time Latitude Longitude Heading Altitude Ground
Speed
02-Dec-19 17:12 45.778228 -111.159775 247 4478ft 0kts
02-Dec-19 17:13 45.778228 -111.159775 247 4478ft 0kts
02-Dec-19 17:14 45.778228 -111.159775 247 4478ft 0kts
02-Dec-19 17:15 45.778228 -111.159775 247 4478ft 0kts
02-Dec-19 17:16 45.778228 -111.159775 247 4478ft 0kts
02-Dec-19 17:17 45.778228 -111.159775 247 4478ft 0kts
02-Dec-19 17:18 45.778228 -111.159775 247 4478ft 0kts
02-Dec-19 17:19 45.778228 -111.159775 247 4478ft 0kts
02-Dec-19 17:20 45.778228 -111.159775 247 4478ft 0kts
02-Dec-19 17:21 45.778228 -111.159775 247 4478ft 0kts
02-Dec-19 17:22 45.778228 -111.159775 247 4478ft 0kts
02-Dec-19 17:23 45.778228 -111.159775 247 4478ft 0kts
02-Dec-19 17:24 45.778581 -111.159394 128 4478ft 0kts
02-Dec-19 17:25 45.778581 -111.159394 128 4478ft 0kts
02-Dec-19 17:26 45.778194 -111.158712 129 4478ft 7kts
02-Dec-19 17:27 45.779852 -111.159153 314 4478ft 18kts
02-Dec-19 17:28 45.783418 -111.164078 315 4478ft 16kts
02-Dec-19 17:29 45.786358 -111.168144 329 4478ft 11kts
02-Dec-19 17:30 45.787580 -111.165800 134 4478ft 10kts
02-Dec-19 17:31 45.768299 -111.137947 139 5383ft 139kts
02-Dec-19 17:32 45.744576 -111.164149 267 7968ft 151kts
02-Dec-19 17:33 45.744763 -111.226845 267 10946ft 152kts
02-Dec-19 17:34 45.738316 -111.285671 251 13301ft 158kts
02-Dec-19 17:35 45.714581 -111.341919 247 15245ft 167kts
02-Dec-19 17:36 45.689784 -111.401665 248 16892ft 180kts
02-Dec-19 17:37 45.663077 -111.465526 248 17015ft 191kts
02-Dec-19 17:38 45.677797 -111.528503 281 17014ft 187kts
02-Dec-19 17:39 45.633291 -111.565955 174 17031ft 254kts
02-Dec-19 17:40 45.564586 -111.536997 171 17047ft 299kts
02-Dec-19 17:41 45.477935 -111.501285 169 17048ft 341kts
02-Dec-19 17:42 45.383329 -111.461748 169 17057ft 360kts
02-Dec-19 17:43 45.286454 -111.421162 169 17071ft 368kts
02-Dec-19 17:44 45.187441 -111.379599 169 17067ft 373kts
02-Dec-19 17:45 45.088030 -111.338123 169 17066ft 375kts
02-Dec-19 17:46 44.987522 -111.296354 169 17066ft 376kts
02-Dec-19 17:47 44.886736 -111.254561 169 17065ft 374kts
02-Dec-19 17:48 44.787226 -111.213262 170 17065ft 371kts
02-Dec-19 17:49 44.688092 -111.172412 169 17064ft 370kts
02-Dec-19 17:50 44.589834 -111.132137 169 17064ft 369kts
02-Dec-19 17:51 44.491220 -111.091831 169 17069ft 368kts
02-Dec-19 17:52 44.395906 -111.040565 142 16951ft 378kts
02-Dec-19 17:53 44.348605 -110.907281 112 15870ft 383kts
02-Dec-19 17:54 44.310225 -110.770615 112 14843ft 375kts
02-Dec-19 17:55 44.272753 -110.635228 112 13704ft 367kts
02-Dec-19 17:56 44.228296 -110.512197 147 13005ft 335kts
02-Dec-19 17:57 44.147866 -110.500691 197 12987ft 280kts
02-Dec-19 17:58 44.074957 -110.523353 202 12989ft 257kts
02-Dec-19 17:59 44.010171 -110.549696 202 12990ft 238kts
02-Dec-19 18:00 43.947405 -110.567289 207 12916ft 220kts
02-Dec-19 18:01 43.893244 -110.600424 214 11886ft 203kts
02-Dec-19 18:02 43.842414 -110.623876 200 11112ft 183kts
02-Dec-19 18:03 43.791823 -110.645733 202 10141ft 193kts
02-Dec-19 18:04 43.743098 -110.671413 203 8942ft 179kts
02-Dec-19 18:05 43.701506 -110.693576 199 8184ft 151kts
02-Dec-19 18:06 43.665772 -110.708819 197 7516ft 124kts
02-Dec-19 18:07 43.631146 -110.725901 200 6853ft 131kts
02-Dec-19 18:08 43.604805 -110.739001 199 6458ft 12kts
02-Dec-19 18:09 43.603749 -110.738205 100 6458ft 0kts
02-Dec-19 18:10 43.603468 -110.737082 115 6458ft 0kts
02-Dec-19 18:11 43.603468 -110.737082 115 6458ft 0kts

Navigation Log

Ident Type
Flight plan parsing failed, navigation log unavailable